Kouts, Indiana
Current Conditions -  °F | °C
As of 12:13 PM on Tuesday 21 Oct 2014 (Local Time) from KVPZ Reporting Station
Overcast Overcast  
Wind Chill: 52°   Ceiling: 1900
Heat Index: 52°   Visibility: 10mi
Dew Point: 44°   Wind: 12mph
Humidity: 74%   Direction: 360°N
Pressure: 30.13"   Gusts: 23mph
Location:  41.32°N, 87.03°W
Report Text: KVPZ 211713Z AUTO 36010G20KT 330V040 10SM BKN019 BKN026 OVC040 11/07 A3013 RMK AO2 T01110067 TSNO
Loading
Personal Weather Stations






























Interactive Weather Map
Tropical Storm Tracking
New forecast layout! Learn more

10-Day Weather Forecast

Advertisements
Track Severe Weather on mobile